sensor_id;sensor_type;location;lat;lon;timestamp;pressure;altitude;pressure_sealevel;temperature;humidity
79000;BME280;68406;53.914;27.416;2023-11-21T06:41:43;986;;;-4.4;67.3
79000;BME280;68406;53.914;27.416;2023-11-21T06:46:33;986;;;-4.3;67.1
79000;BME280;68406;53.914;27.416;2023-11-21T06:51:55;986;;;-4.2;66.9
79000;BME280;68406;53.914;27.416;2023-11-21T06:56:53;986.1;;;-4;66.8
79000;BME280;68406;53.914;27.416;2023-11-21T07:01:39;986.2;;;-3.8;66.3
79000;BME280;68406;53.914;27.416;2023-11-21T07:06:37;986.2;;;-3.7;65.7
79000;BME280;68406;53.914;27.416;2023-11-21T07:11:29;986.1;;;-3.6;65.2
79000;BME280;68406;53.914;27.416;2023-11-21T07:16:19;986.1;;;-3.7;65.4
79000;BME280;68406;53.914;27.416;2023-11-21T07:21:55;986.1;;;-3.6;65.2
79000;BME280;68406;53.914;27.416;2023-11-21T07:26:21;986.2;;;-3.5;64.9
79000;BME280;68406;53.914;27.416;2023-11-21T07:31:55;986.2;;;-3.3;64.5
79000;BME280;68406;53.914;27.416;2023-11-21T07:36:35;986.3;;;-3.2;64
79000;BME280;68406;53.914;27.416;2023-11-21T07:41:55;986.5;;;-3.1;63.7
79000;BME280;68406;53.914;27.416;2023-11-21T07:46:43;986.5;;;-3.1;63.3
79000;BME280;68406;53.914;27.416;2023-11-21T07:51:55;986.6;;;-3;63.2
79000;BME280;68406;53.914;27.416;2023-11-21T07:56:53;986.6;;;-2.8;62.7
79000;BME280;68406;53.914;27.416;2023-11-21T08:01:29;986.6;;;-2.7;62.4
79000;BME280;68406;53.914;27.416;2023-11-21T08:06:27;986.6;;;-2.4;61.8
79000;BME280;68406;53.914;27.416;2023-11-21T08:11:33;986.6;;;-2.2;60.9
79000;BME280;68406;53.914;27.416;2023-11-21T08:16:37;986.6;;;-2.1;60.5
79000;BME280;68406;53.914;27.416;2023-11-21T08:21:45;986.6;;;-1.8;59.9
79000;BME280;68406;53.914;27.416;2023-11-21T08:26:35;986.6;;;-1.6;59.5
79000;BME280;68406;53.914;27.416;2023-11-21T08:31:55;986.5;;;-1.5;58.9
79000;BME280;68406;53.914;27.416;2023-11-21T08:36:43;986.5;;;-1.2;58.1
79000;BME280;68406;53.914;27.416;2023-11-21T08:41:53;986.6;;;-1;57.4
79000;BME280;68406;53.914;27.416;2023-11-21T08:46:53;986.7;;;-0.7;56.6
79000;BME280;68406;53.914;27.416;2023-11-21T08:51:27;986.7;;;-0.3;55.4
79000;BME280;68406;53.914;27.416;2023-11-21T08:56:37;986.7;;;-0.1;54.5
79000;BME280;68406;53.914;27.416;2023-11-21T09:01:19;986.6;;;0;53.4
79000;BME280;68406;53.914;27.416;2023-11-21T09:06:19;986.6;;;0;53
79000;BME280;68406;53.914;27.416;2023-11-21T09:11:51;986.6;;;0;52.1
79000;BME280;68406;53.914;27.416;2023-11-21T09:16:31;986.7;;;0.1;51
79000;BME280;68406;53.914;27.416;2023-11-21T09:21:55;986.7;;;0.1;50.3
79000;BME280;68406;53.914;27.416;2023-11-21T09:26:45;986.7;;;0;50.1
79000;BME280;68406;53.914;27.416;2023-11-21T09:31:53;986.7;;;0;49.8
79000;BME280;68406;53.914;27.416;2023-11-21T09:36:53;986.7;;;0.1;49.3
79000;BME280;68406;53.914;27.416;2023-11-21T09:41:21;986.7;;;0.1;49
79000;BME280;68406;53.914;27.416;2023-11-21T09:46:41;986.7;;;0.1;48.8
79000;BME280;68406;53.914;27.416;2023-11-21T09:51:43;986.7;;;0.3;48.7
79000;BME280;68406;53.914;27.416;2023-11-21T09:56:19;986.7;;;0.3;47.9
79000;BME280;68406;53.914;27.416;2023-11-21T10:01:45;986.7;;;0.1;47.8
79000;BME280;68406;53.914;27.416;2023-11-21T10:06:33;986.7;;;-0.1;48.2
79000;BME280;68406;53.914;27.416;2023-11-21T10:11:57;986.7;;;-0.3;48.8
79000;BME280;68406;53.914;27.416;2023-11-21T10:16:47;986.8;;;-0.6;49.1
79000;BME280;68406;53.914;27.416;2023-11-21T10:21:57;986.7;;;-0.9;49.2
79000;BME280;68406;53.914;27.416;2023-11-21T10:26:57;986.8;;;-1.3;49.9
79000;BME280;68406;53.914;27.416;2023-11-21T10:31:29;986.9;;;-1.4;50.5
79000;BME280;68406;53.914;27.416;2023-11-21T10:36:57;986.8;;;-1.2;50.2
79000;BME280;68406;53.914;27.416;2023-11-21T10:41:19;986.8;;;-1.1;50.2
79000;BME280;68406;53.914;27.416;2023-11-21T10:46:23;986.9;;;-1;50.3
79000;BME280;68406;53.914;27.416;2023-11-21T10:51:45;986.9;;;-1;50.2
79000;BME280;68406;53.914;27.416;2023-11-21T10:56:33;987;;;-0.9;50
79000;BME280;68406;53.914;27.416;2023-11-21T11:01:55;986.9;;;-0.7;49.5
79000;BME280;68406;53.914;27.416;2023-11-21T11:06:57;987;;;-0.4;48.9
79000;BME280;68406;53.914;27.416;2023-11-21T11:11:55;987;;;-0.1;48.5
79000;BME280;68406;53.914;27.416;2023-11-21T11:16:57;987;;;-0.1;48.5
79000;BME280;68406;53.914;27.416;2023-11-21T11:21:28;987;;;0.1;48
79000;BME280;68406;53.914;27.416;2023-11-21T11:26:42;987;;;0.6;47.5
79000;BME280;68406;53.914;27.416;2023-11-21T11:31:37;987;;;1.3;46.3
79000;BME280;68406;53.914;27.416;2023-11-21T11:36:21;987;;;1.6;45.8
79000;BME280;68406;53.914;27.416;2023-11-21T11:41:42;987;;;2.1;45.2
79000;BME280;68406;53.914;27.416;2023-11-21T11:46:44;987;;;2.3;44.6
79000;BME280;68406;53.914;27.416;2023-11-21T11:51:17;987;;;1.9;44.5
79000;BME280;68406;53.914;27.416;2023-11-21T11:56:45;987;;;1.8;44.6
79000;BME280;68406;53.914;27.416;2023-11-21T12:01:30;987.1;;;1.8;44.5
79000;BME280;68406;53.914;27.416;2023-11-21T12:06:55;987.1;;;1.5;44.4
79000;BME280;68406;53.914;27.416;2023-11-21T12:11:43;987.2;;;1;45
79000;BME280;68406;53.914;27.416;2023-11-21T12:16:29;987.2;;;0.7;45.6
79000;BME280;68406;53.914;27.416;2023-11-21T12:21:47;987.2;;;0.5;45.7
79000;BME280;68406;53.914;27.416;2023-11-21T12:26:35;987.2;;;0.2;46
79000;BME280;68406;53.914;27.416;2023-11-21T12:31:55;987.3;;;0.1;46.6
79000;BME280;68406;53.914;27.416;2023-11-21T12:36:21;987.3;;;-0.1;47
79000;BME280;68406;53.914;27.416;2023-11-21T12:41:31;987.4;;;-0.2;47.2
79000;BME280;68406;53.914;27.416;2023-11-21T12:46:45;987.5;;;-0.3;47.3
79000;BME280;68406;53.914;27.416;2023-11-21T12:51:45;987.5;;;-0.5;47.5
79000;BME280;68406;53.914;27.416;2023-11-21T12:56:59;987.6;;;-0.6;47.7
79000;BME280;68406;53.914;27.416;2023-11-21T13:01:43;987.6;;;-0.8;47.8
79000;BME280;68406;53.914;27.416;2023-11-21T13:06:29;987.7;;;-0.9;47.9
79000;BME280;68406;53.914;27.416;2023-11-21T13:11:19;987.7;;;-1.1;47.4
79000;BME280;68406;53.914;27.416;2023-11-21T13:16:33;987.7;;;-1.4;47.6
79000;BME280;68406;53.914;27.416;2023-11-21T13:21:53;987.7;;;-1.6;48.1
79000;BME280;68406;53.914;27.416;2023-11-21T13:26:21;987.8;;;-1.8;48.5
79000;BME280;68406;53.914;27.416;2023-11-21T13:31:25;987.9;;;-2;48.8
79000;BME280;68406;53.914;27.416;2023-11-21T13:36:40;987.9;;;-2.1;49.3
79000;BME280;68406;53.914;27.416;2023-11-21T13:41:43;987.9;;;-2.1;49.4
79000;BME280;68406;53.914;27.416;2023-11-21T13:46:57;987.9;;;-2.3;49.3
79000;BME280;68406;53.914;27.416;2023-11-21T13:51:35;987.9;;;-2.4;49.6
79000;BME280;68406;53.914;27.416;2023-11-21T13:56:19;987.9;;;-2.5;50
79000;BME280;68406;53.914;27.416;2023-11-21T14:01:22;987.9;;;-2.7;50.3
79000;BME280;68406;53.914;27.416;2023-11-21T14:06:53;988;;;-2.8;50.4
79000;BME280;68406;53.914;27.416;2023-11-21T14:11:55;988;;;-2.8;50.1
79000;BME280;68406;53.914;27.416;2023-11-21T14:16:35;988;;;-2.9;50.2
79000;BME280;68406;53.914;27.416;2023-11-21T14:21:31;988;;;-3;50.2
79000;BME280;68406;53.914;27.416;2023-11-21T14:26:47;988.1;;;-3.1;50.4
79000;BME280;68406;53.914;27.416;2023-11-21T14:31:43;988.1;;;-3.1;50.7
79000;BME280;68406;53.914;27.416;2023-11-21T14:36:55;988.2;;;-3.2;50.7
79000;BME280;68406;53.914;27.416;2023-11-21T14:41:43;988.2;;;-3.2;50.7
79000;BME280;68406;53.914;27.416;2023-11-21T14:46:27;988.3;;;-3.2;50.8
79000;BME280;68406;53.914;27.416;2023-11-21T14:51:19;988.3;;;-3.2;50.8
79000;BME280;68406;53.914;27.416;2023-11-21T14:56:55;988.3;;;-3.2;50.7
79000;BME280;68406;53.914;27.416;2023-11-21T15:01:53;988.4;;;-3.2;50.5
79000;BME280;68406;53.914;27.416;2023-11-21T15:06:45;988.4;;;-3.2;50.5
79000;BME280;68406;53.914;27.416;2023-11-21T15:11:19;988.4;;;-3.3;50.6
79000;BME280;68406;53.914;27.416;2023-11-21T15:16:47;988.4;;;-3.3;50.7
79000;BME280;68406;53.914;27.416;2023-11-21T15:21:45;988.4;;;-3.3;51
79000;BME280;68406;53.914;27.416;2023-11-21T15:26:55;988.4;;;-3.3;50.8
79000;BME280;68406;53.914;27.416;2023-11-21T15:31:45;988.4;;;-3.3;50.9
79000;BME280;68406;53.914;27.416;2023-11-21T15:36:27;988.5;;;-3.3;50.8
79000;BME280;68406;53.914;27.416;2023-11-21T15:41:19;988.5;;;-3.3;50.7
79000;BME280;68406;53.914;27.416;2023-11-21T15:46:35;988.6;;;-3.3;50.3
79000;BME280;68406;53.914;27.416;2023-11-21T15:51:57;988.6;;;-3.3;50.3
79000;BME280;68406;53.914;27.416;2023-11-21T15:56:47;988.7;;;-3.3;50.4
79000;BME280;68406;53.914;27.416;2023-11-21T16:01:33;988.7;;;-3.3;50.4
79000;BME280;68406;53.914;27.416;2023-11-21T16:06:49;988.8;;;-3.3;50.5
79000;BME280;68406;53.914;27.416;2023-11-21T16:12:00;988.8;;;-3.3;50.5
79000;BME280;68406;53.914;27.416;2023-11-21T16:16:59;988.9;;;-3.3;50.8
79000;BME280;68406;53.914;27.416;2023-11-21T16:21:19;988.9;;;-3.4;51
79000;BME280;68406;53.914;27.416;2023-11-21T16:26:21;988.9;;;-3.5;51.1
79000;BME280;68406;53.914;27.416;2023-11-21T16:31:22;988.9;;;-3.5;51.2
79000;BME280;68406;53.914;27.416;2023-11-21T16:36:19;989;;;-3.6;51.5
79000;BME280;68406;53.914;27.416;2023-11-21T16:41:55;989;;;-3.6;51.7
79000;BME280;68406;53.914;27.416;2023-11-21T16:46:37;989.1;;;-3.7;52
79000;BME280;68406;53.914;27.416;2023-11-21T16:51:27;989.1;;;-3.7;52.3
79000;BME280;68406;53.914;27.416;2023-11-21T16:56:31;989.2;;;-3.7;52.5
79000;BME280;68406;53.914;27.416;2023-11-21T17:01:41;989.2;;;-3.7;52.5
79000;BME280;68406;53.914;27.416;2023-11-21T17:06:55;989.2;;;-3.7;52.6
79000;BME280;68406;53.914;27.416;2023-11-21T17:11:31;989.3;;;-3.8;52.6
79000;BME280;68406;53.914;27.416;2023-11-21T17:16:19;989.3;;;-3.8;52.6
79000;BME280;68406;53.914;27.416;2023-11-21T17:21:21;989.3;;;-3.8;52.6
79000;BME280;68406;53.914;27.416;2023-11-21T17:26:33;989.4;;;-3.7;52.7
79000;BME280;68406;53.914;27.416;2023-11-21T17:31:55;989.4;;;-3.6;52.5
79000;BME280;68406;53.914;27.416;2023-11-21T17:36:45;989.4;;;-3.5;52.2
79000;BME280;68406;53.914;27.416;2023-11-21T17:41:19;989.4;;;-3.4;51.8
79000;BME280;68406;53.914;27.416;2023-11-21T17:46:35;989.4;;;-3.3;51.6
79000;BME280;68406;53.914;27.416;2023-11-21T17:51:44;989.4;;;-3.2;51.4
79000;BME280;68406;53.914;27.416;2023-11-21T17:56:57;989.4;;;-3.1;51.2
79000;BME280;68406;53.914;27.416;2023-11-21T18:01:21;989.4;;;-3;51.2
79000;BME280;68406;53.914;27.416;2023-11-21T18:06:21;989.5;;;-3;51.4
79000;BME280;68406;53.914;27.416;2023-11-21T18:11:21;989.5;;;-3;51.5
79000;BME280;68406;53.914;27.416;2023-11-21T18:16:33;989.5;;;-3;51.5
79000;BME280;68406;53.914;27.416;2023-11-21T18:21:23;989.5;;;-3;51.8
79000;BME280;68406;53.914;27.416;2023-11-21T18:26:45;989.5;;;-3;52.1
79000;BME280;68406;53.914;27.416;2023-11-21T18:31:29;989.5;;;-3;51.5
79000;BME280;68406;53.914;27.416;2023-11-21T18:36:47;989.5;;;-3;50.8
79000;BME280;68406;53.914;27.416;2023-11-21T18:41:43;989.6;;;-3.1;50.3
79000;BME280;68406;53.914;27.416;2023-11-21T18:46:53;989.6;;;-3.1;50
79000;BME280;68406;53.914;27.416;2023-11-21T18:51:21;989.7;;;-3.2;49.8
79000;BME280;68406;53.914;27.416;2023-11-21T18:56:21;989.7;;;-3.2;49.7
79000;BME280;68406;53.914;27.416;2023-11-21T19:01:25;989.8;;;-3.2;49.7
79000;BME280;68406;53.914;27.416;2023-11-21T19:06:31;989.9;;;-3.3;49.8
79000;BME280;68406;53.914;27.416;2023-11-21T19:11:55;989.9;;;-3.3;49.7
79000;BME280;68406;53.914;27.416;2023-11-21T19:16:33;989.9;;;-3.3;49.6
79000;BME280;68406;53.914;27.416;2023-11-21T19:21:19;990;;;-3.3;49.7
79000;BME280;68406;53.914;27.416;2023-11-21T19:26:46;990;;;-3.3;49.7
79000;BME280;68406;53.914;27.416;2023-11-21T19:31:45;990;;;-3.2;49.9
79000;BME280;68406;53.914;27.416;2023-11-21T19:36:51;990.1;;;-3.2;49.9
79000;BME280;68406;53.914;27.416;2023-11-21T19:41:35;990.1;;;-3.3;49.5
79000;BME280;68406;53.914;27.416;2023-11-21T19:46:21;990.2;;;-3.3;49.4
79000;BME280;68406;53.914;27.416;2023-11-21T19:51:21;990.2;;;-3.3;49.5
79000;BME280;68406;53.914;27.416;2023-11-21T19:56:19;990.3;;;-3.3;49.4
79000;BME280;68406;53.914;27.416;2023-11-21T20:01:45;990.3;;;-3.3;49.6
79000;BME280;68406;53.914;27.416;2023-11-21T20:06:33;990.3;;;-3.4;49.6
79000;BME280;68406;53.914;27.416;2023-11-21T20:11:29;990.4;;;-3.4;49.8
79000;BME280;68406;53.914;27.416;2023-11-21T20:16:29;990.5;;;-3.4;50
79000;BME280;68406;53.914;27.416;2023-11-21T20:21:45;990.5;;;-3.4;50
79000;BME280;68406;53.914;27.416;2023-11-21T20:26:51;990.6;;;-3.4;50.1
79000;BME280;68406;53.914;27.416;2023-11-21T20:31:21;990.5;;;-3.3;50
79000;BME280;68406;53.914;27.416;2023-11-21T20:36:29;990.5;;;-3.3;50.1
79000;BME280;68406;53.914;27.416;2023-11-21T20:41:21;990.5;;;-3.3;50.2
79000;BME280;68406;53.914;27.416;2023-11-21T20:46:38;990.5;;;-3.2;50.1
79000;BME280;68406;53.914;27.416;2023-11-21T20:52:01;990.5;;;-3.2;50
79000;BME280;68406;53.914;27.416;2023-11-21T20:57:01;990.5;;;-3.2;49.9
79000;BME280;68406;53.914;27.416;2023-11-21T21:01:35;990.5;;;-3.2;50
79000;BME280;68406;53.914;27.416;2023-11-21T21:06:36;990.5;;;-3.2;50.1
79000;BME280;68406;53.914;27.416;2023-11-21T21:11:47;990.5;;;-3.2;50.1
79000;BME280;68406;53.914;27.416;2023-11-21T21:16:55;990.6;;;-3.1;50.1
79000;BME280;68406;53.914;27.416;2023-11-21T21:21:21;990.6;;;-3.1;50.2
79000;BME280;68406;53.914;27.416;2023-11-21T21:26:33;990.7;;;-3.1;49.9
79000;BME280;68406;53.914;27.416;2023-11-21T21:31:23;990.7;;;-3.1;49.9
79000;BME280;68406;53.914;27.416;2023-11-21T21:36:35;990.8;;;-3.1;49.9
79000;BME280;68406;53.914;27.416;2023-11-21T21:41:59;990.8;;;-3.1;50.1
79000;BME280;68406;53.914;27.416;2023-11-21T21:46:51;990.8;;;-3;49.9
79000;BME280;68406;53.914;27.416;2023-11-21T21:51:21;990.8;;;-3;50
79000;BME280;68406;53.914;27.416;2023-11-21T21:56:51;990.9;;;-3;50
79000;BME280;68406;53.914;27.416;2023-11-21T22:02:01;990.9;;;-3;50.2
79000;BME280;68406;53.914;27.416;2023-11-21T22:06:23;990.9;;;-3;50.1
79000;BME280;68406;53.914;27.416;2023-11-21T22:11:29;990.9;;;-3;50.4
79000;BME280;68406;53.914;27.416;2023-11-21T22:16:21;990.9;;;-3;50.4
79000;BME280;68406;53.914;27.416;2023-11-21T22:21:33;990.8;;;-3;50.4
79000;BME280;68406;53.914;27.416;2023-11-21T22:26:47;990.8;;;-3;50.6
79000;BME280;68406;53.914;27.416;2023-11-21T22:31:57;990.9;;;-3;50.7
79000;BME280;68406;53.914;27.416;2023-11-21T22:36:47;990.9;;;-3;50.8
79000;BME280;68406;53.914;27.416;2023-11-21T22:41:23;990.9;;;-3;50.9
79000;BME280;68406;53.914;27.416;2023-11-21T22:46:47;991;;;-3;50.9
79000;BME280;68406;53.914;27.416;2023-11-21T22:51:47;991;;;-3;50.9
79000;BME280;68406;53.914;27.416;2023-11-21T22:56:59;991;;;-3;51.1
79000;BME280;68406;53.914;27.416;2023-11-21T23:01:31;991.1;;;-3;51.1
79000;BME280;68406;53.914;27.416;2023-11-21T23:06:23;991.1;;;-3;51.2
79000;BME280;68406;53.914;27.416;2023-11-21T23:11:21;991.2;;;-3;51.4
79000;BME280;68406;53.914;27.416;2023-11-21T23:16:37;991.2;;;-3;51.6
79000;BME280;68406;53.914;27.416;2023-11-21T23:21:59;991.2;;;-3;51.9
79000;BME280;68406;53.914;27.416;2023-11-21T23:26:47;991.2;;;-3.1;52.4
79000;BME280;68406;53.914;27.416;2023-11-21T23:31:23;991.3;;;-3.1;52.6
79000;BME280;68406;53.914;27.416;2023-11-21T23:36:49;991.3;;;-3.1;52.7
79000;BME280;68406;53.914;27.416;2023-11-21T23:41:47;991.3;;;-3.1;52.8
79000;BME280;68406;53.914;27.416;2023-11-21T23:46:59;991.3;;;-3.1;53
79000;BME280;68406;53.914;27.416;2023-11-21T23:51:23;991.3;;;-3.1;53.2
79000;BME280;68406;53.914;27.416;2023-11-21T23:56:23;991.4;;;-3.1;53.3
